createdAt,value
2019-05-12T14:07:29.945Z,60.38
2019-05-12T14:09:56.084Z,62.15
2019-05-12T14:12:22.008Z,62.63
2019-05-12T14:14:48.140Z,61.49
2019-05-12T14:17:14.935Z,61.50
2019-05-12T14:19:40.874Z,63.37
2019-05-12T14:22:07.254Z,65.36
2019-05-12T14:24:42.206Z,65.61
2019-05-12T14:27:01.162Z,64.88
2019-05-12T14:29:30.522Z,63.36
2019-05-12T14:32:01.917Z,63.68
2019-05-12T14:34:23.641Z,63.10
2019-05-12T14:36:49.751Z,62.38
2019-05-12T14:39:15.778Z,62.53
2019-05-12T14:41:45.766Z,62.30
2019-05-12T14:44:09.959Z,62.47
2019-05-12T14:46:40.056Z,62.65
2019-05-12T14:49:03.858Z,62.67
2019-05-12T14:51:29.959Z,62.39
2019-05-12T14:53:55.963Z,62.62
2019-05-12T14:56:23.333Z,62.63
2019-05-12T14:58:50.179Z,62.96
2019-05-12T15:01:17.766Z,62.74
2019-05-12T15:03:47.820Z,62.88
2019-05-12T15:06:13.981Z,62.98
2019-05-12T15:08:40.464Z,62.85
2019-05-12T15:11:06.602Z,63.01
2019-05-12T15:13:34.301Z,62.58
2019-05-12T15:16:00.519Z,62.72
2019-05-12T15:18:26.637Z,61.98
2019-05-12T15:20:54.467Z,61.67
2019-05-12T15:23:23.963Z,61.39
2019-05-12T15:25:50.905Z,61.14
2019-05-12T15:28:16.435Z,61.31
2019-05-12T15:30:43.631Z,61.54
2019-05-12T15:33:09.976Z,60.94
2019-05-12T15:35:35.887Z,60.56
2019-05-12T15:38:03.702Z,61.07
2019-05-12T15:40:30.082Z,61.13
2019-05-12T15:43:00.420Z,60.85
2019-05-12T15:45:24.187Z,60.99
2019-05-12T15:47:50.295Z,60.96
2019-05-12T15:50:16.412Z,60.65
2019-05-12T15:52:45.382Z,60.54
2019-05-12T15:55:10.784Z,61.02
2019-05-12T15:57:36.891Z,60.77
2019-05-12T16:00:07.683Z,60.88
2019-05-12T16:02:34.048Z,60.44
2019-05-12T16:05:00.407Z,60.44
2019-05-12T16:07:29.460Z,60.56
2019-05-12T16:09:54.764Z,60.45
2019-05-12T16:12:24.351Z,60.79
2019-05-12T16:14:49.247Z,60.62
2019-05-12T16:17:18.494Z,61.08
2019-05-12T16:19:43.904Z,61.03
2019-05-12T16:22:10.030Z,61.23
2019-05-12T16:24:36.129Z,61.19
2019-05-12T16:27:03.613Z,61.91
2019-05-12T16:29:29.878Z,61.87
2019-05-12T16:31:55.891Z,62.19
2019-05-12T16:34:22.003Z,62.78
2019-05-12T16:36:52.066Z,63.29
2019-05-12T16:39:16.055Z,63.58
2019-05-12T16:41:43.857Z,64.07
2019-05-12T16:44:17.620Z,64.23
2019-05-12T16:46:38.106Z,64.67
2019-05-12T16:49:04.217Z,64.97
2019-05-12T16:51:30.223Z,65.10
2019-05-12T16:53:56.228Z,65.61
2019-05-12T16:56:28.073Z,65.63
2019-05-12T16:58:50.331Z,65.98
2019-05-12T17:01:19.508Z,66.12
2019-05-12T17:03:44.611Z,66.06
2019-05-12T17:06:11.322Z,66.43
2019-05-12T17:08:37.329Z,66.39
2019-05-12T17:11:23.365Z,66.79
2019-05-12T17:13:33.598Z,67.24
2019-05-12T17:16:00.265Z,67.43
2019-05-12T17:18:26.362Z,67.33
2019-05-12T17:20:54.584Z,67.64
2019-05-12T17:23:20.288Z,67.54
2019-05-12T17:25:46.402Z,67.52
2019-05-12T17:28:13.254Z,67.67
2019-05-12T17:30:39.437Z,67.60
2019-05-12T17:33:05.591Z,67.56
2019-05-12T17:35:48.610Z,67.74
2019-05-12T17:38:19.738Z,67.87
2019-05-12T17:40:44.094Z,67.86
2019-05-12T17:43:11.978Z,67.95
2019-05-12T17:45:38.184Z,68.15
2019-05-12T17:48:07.714Z,68.48
2019-05-12T17:50:34.422Z,68.41
2019-05-12T17:53:00.680Z,68.54
2019-05-12T17:55:26.885Z,68.70
2019-05-12T17:57:56.174Z,69.11
2019-05-12T18:00:23.336Z,69.22
2019-05-12T18:02:49.548Z,69.45
2019-05-12T18:05:17.314Z,69.77
2019-05-12T18:07:44.322Z,69.85
2019-05-12T18:10:13.450Z,69.84
2019-05-12T18:12:44.767Z,69.83
2019-05-12T18:15:08.416Z,69.60
2019-05-12T18:17:39.009Z,69.76
2019-05-12T18:20:05.113Z,69.84
2019-05-12T18:22:31.230Z,69.68
2019-05-12T18:24:57.436Z,69.67
2019-05-12T18:27:23.450Z,69.76
2019-05-12T18:29:49.565Z,69.80
2019-05-12T18:32:15.690Z,69.67
2019-05-12T18:34:44.315Z,69.63
2019-05-12T18:37:09.733Z,69.63
2019-05-12T18:39:35.845Z,69.71
2019-05-12T18:42:03.525Z,69.64
2019-05-12T18:44:31.636Z,69.67
2019-05-12T18:46:57.759Z,69.88
2019-05-12T18:49:24.042Z,69.76
2019-05-12T18:51:55.227Z,69.88
2019-05-12T18:54:18.195Z,69.73
2019-05-12T18:56:44.298Z,69.81
2019-05-12T18:59:11.792Z,69.84
2019-05-12T19:01:38.531Z,69.93
2019-05-12T19:04:04.644Z,69.84
2019-05-12T19:06:30.653Z,70.10
2019-05-12T19:08:56.687Z,70.20
2019-05-12T19:11:31.310Z,70.27
2019-05-12T19:13:52.332Z,70.25
2019-05-12T19:16:18.818Z,70.46
2019-05-12T19:18:47.816Z,70.39
2019-05-12T19:21:16.565Z,70.42
2019-05-12T19:23:40.828Z,70.50
2019-05-12T19:26:06.832Z,70.67
2019-05-12T19:28:34.228Z,70.77
2019-05-12T19:31:05.082Z,70.78
2019-05-12T19:33:28.374Z,71.02
2019-05-12T19:35:59.860Z,70.92
2019-05-12T19:38:23.973Z,71.26
2019-05-12T19:40:58.693Z,71.04
2019-05-12T19:43:18.235Z,71.37
2019-05-12T19:45:44.335Z,71.45
2019-05-12T19:48:23.352Z,71.38
2019-05-12T19:50:38.385Z,71.39
2019-05-12T19:53:04.394Z,71.74
2019-05-12T19:55:30.401Z,71.68
2019-05-12T19:57:56.453Z,71.72
2019-05-12T20:00:22.691Z,71.61
2019-05-12T20:02:48.731Z,71.64
2019-05-12T20:05:17.611Z,71.84
2019-05-12T20:07:44.664Z,71.76
2019-05-12T20:10:13.853Z,71.96
2019-05-12T20:12:39.426Z,71.99
2019-05-12T20:15:05.735Z,72.04
2019-05-12T20:17:33.925Z,72.15
2019-05-12T20:19:59.798Z,72.04
2019-05-12T20:22:25.703Z,72.04
2019-05-12T20:24:53.681Z,71.92
2019-05-12T20:27:21.884Z,71.99
2019-05-12T20:29:47.344Z,72.09
2019-05-12T20:32:13.932Z,72.02
2019-05-12T20:34:49.215Z,72.07
2019-05-12T20:37:13.334Z,72.00
2019-05-12T20:39:36.202Z,71.92
2019-05-12T20:42:03.135Z,72.04
2019-05-12T20:44:30.153Z,71.85
2019-05-12T20:47:01.346Z,71.79
2019-05-12T20:49:24.330Z,72.05
2019-05-12T20:51:54.855Z,72.36
2019-05-12T20:54:18.370Z,72.29
2019-05-12T20:56:44.538Z,72.19
2019-05-12T20:59:13.734Z,72.32
2019-05-12T21:01:38.715Z,72.34
2019-05-12T21:04:07.473Z,72.35
2019-05-12T21:06:41.304Z,72.34
2019-05-12T21:09:00.526Z,72.40
2019-05-12T21:11:26.667Z,72.60
2019-05-12T21:13:54.541Z,72.54
2019-05-12T21:16:31.147Z,72.52
2019-05-12T21:18:55.830Z,72.43
2019-05-12T21:21:16.667Z,72.48
2019-05-12T21:23:45.801Z,72.49
2019-05-12T21:26:10.521Z,72.41
2019-05-12T21:28:37.038Z,72.35
2019-05-12T21:31:04.435Z,72.28
2019-05-12T21:33:31.296Z,72.16
2019-05-12T21:35:58.288Z,72.27
2019-05-12T21:38:29.384Z,72.28
2019-05-12T21:40:52.215Z,72.27
2019-05-12T21:43:18.218Z,72.30
2019-05-12T21:45:44.224Z,72.28
2019-05-12T21:48:15.051Z,72.24
2019-05-12T21:50:38.478Z,72.15
2019-05-12T21:53:04.823Z,72.18
2019-05-12T21:55:33.994Z,72.06
2019-05-12T21:58:01.571Z,72.04
2019-05-12T22:00:38.140Z,71.87
2019-05-12T22:03:08.204Z,71.88
2019-05-12T22:05:48.064Z,71.88
2019-05-12T22:08:03.200Z,72.00
2019-05-12T22:10:30.949Z,72.10
2019-05-12T22:13:00.576Z,72.19
2019-05-12T22:15:28.579Z,72.01
2019-05-12T22:17:59.604Z,72.17
2019-05-12T22:20:27.008Z,72.11
2019-05-12T22:22:53.040Z,72.21
2019-05-12T22:25:19.037Z,72.48
2019-05-12T22:27:45.157Z,72.30
2019-05-12T22:30:13.383Z,72.31
2019-05-12T22:32:39.408Z,72.33
2019-05-12T22:35:05.819Z,72.50
2019-05-12T22:37:34.870Z,72.55
2019-05-12T22:39:59.669Z,72.86
2019-05-12T22:42:25.791Z,72.93
2019-05-12T22:44:53.033Z,73.04
2019-05-12T22:47:19.609Z,73.11
2019-05-12T22:49:45.612Z,73.10
2019-05-12T22:52:13.575Z,73.13
2019-05-12T22:54:40.471Z,73.05
2019-05-12T22:57:07.664Z,72.99
2019-05-12T22:59:40.373Z,73.27
2019-05-12T23:02:04.188Z,73.26
2019-05-12T23:04:35.422Z,73.54
2019-05-12T23:06:57.508Z,73.42
2019-05-12T23:09:28.030Z,73.55
2019-05-12T23:11:53.607Z,73.52
2019-05-12T23:14:22.376Z,73.44
2019-05-12T23:16:47.430Z,73.47
2019-05-12T23:19:15.128Z,73.53
2019-05-12T23:21:41.313Z,73.55
2019-05-12T23:24:07.420Z,73.39
2019-05-12T23:26:41.727Z,73.38
2019-05-12T23:29:01.351Z,73.33
2019-05-12T23:31:30.354Z,73.40
2019-05-12T23:33:56.663Z,73.53
2019-05-12T23:36:35.242Z,73.37
2019-05-12T23:38:52.019Z,73.22
2019-05-12T23:41:18.607Z,73.21
2019-05-12T23:43:44.723Z,73.34
2019-05-12T23:46:10.758Z,73.39
2019-05-12T23:48:36.659Z,73.47
2019-05-12T23:51:03.871Z,73.28
2019-05-12T23:53:30.188Z,73.35
2019-05-12T23:55:56.201Z,73.07
2019-05-12T23:58:23.623Z,73.12
